Villas de Candelero, Puerto Rico
Current Conditions -  °F | °C
As of 7:53 PM on Friday 21 Nov 2014 (Local Time) from TJNR Reporting Station
Overcast Overcast  
Wind Chill: 80°   Ceiling: 7000
Heat Index: 84°   Visibility: 10mi
Dew Point: 72°   Wind: 10mph
Humidity: 76%   Direction: 90°E
Pressure: 30.03"   Gusts: NA
Location:  18.1494°N, 65.8294°W
Report Text: TJNR 212353Z AUTO 09009KT 10SM SCT026 BKN070 OVC100 27/22 A3003 RMK AO2 SLP170 60000 T02670222 10289 20250 53007 $
Loading
Personal Weather Stations






























Interactive Weather Map New forecast layout! Learn more

10-Day Weather Forecast

Advertisements
Track Severe Weather on mobile